Time;durP1;ratioP1;P1;durP2;ratioP2;P2;SDS_P1;SDS_P2;PMS_P1;PMS_P2;Temp;Humidity;BMP_temperature;BMP_pressure;BME280_temperature;BME280_humidity;BME280_pressure;Samples;Min_cycle;Max_cycle;Signal;HPM_P1;HPM_P2
2023/01/21 00:02:34;;;;;;;;;;;;;;;0.35;100.00;99804.50;5546716;32;33405;-75
2023/01/21 00:05:40;;;;;;;;;;;;;;;0.26;100.00;99795.63;5558782;32;34407;-76
2023/01/21 00:08:48;;;;;;;;;;;;;;;0.30;100.00;99797.03;5546518;32;34295;-74
2023/01/21 00:11:58;;;;;;;;;;;;;;;0.41;100.00;99797.06;5556042;32;34634;-75
2023/01/21 00:15:05;;;;;;;;;;;;;;;0.33;100.00;99790.78;5560472;32;35190;-75
2023/01/21 00:18:15;;;;;;;;;;;;;;;0.34;100.00;99789.78;5566056;32;34361;-74
2023/01/21 00:21:22;;;;;;;;;;;;;;;0.36;100.00;99793.97;5548013;32;35142;-74
2023/01/21 00:24:27;;;;;;;;;;;;;;;0.33;100.00;99791.59;5547151;32;35317;-73
2023/01/21 00:27:36;;;;;;;;;;;;;;;0.37;100.00;99798.25;5553622;32;34624;-74
2023/01/21 00:30:44;;;;;;;;;;;;;;;0.34;100.00;99792.41;5547017;32;34499;-74
2023/01/21 00:33:52;;;;;;;;;;;;;;;0.29;100.00;99799.78;5545884;32;34402;-74
2023/01/21 00:37:00;;;;;;;;;;;;;;;0.29;100.00;99797.16;5547502;32;34740;-75
2023/01/21 00:40:06;;;;;;;;;;;;;;;0.31;100.00;99806.53;5557305;32;34596;-74
2023/01/21 00:43:13;;;;;;;;;;;;;;;0.30;100.00;99804.84;5566784;32;33951;-76
2023/01/21 00:46:25;;;;;;;;;;;;;;;0.30;100.00;99804.84;5566166;32;34561;-74
2023/01/21 00:49:36;;;;;;;;;;;;;;;0.37;100.00;99805.22;5568258;32;35171;-74
2023/01/21 00:52:43;;;;;;;;;;;;;;;0.26;100.00;99787.78;5569173;32;34420;-73
2023/01/21 00:55:53;;;;;;;;;;;;;;;0.31;100.00;99793.47;5569073;32;34679;-75
2023/01/21 00:59:01;;;;;;;;;;;;;;;0.28;100.00;99795.50;5569078;32;34532;-74
2023/01/21 01:02:09;;;;;;;;;;;;;;;0.25;100.00;99814.81;5568958;32;35142;-74
2023/01/21 01:05:15;;;;;;;;;;;;;;;0.20;100.00;99805.66;5568104;32;34541;-73
2023/01/21 01:08:24;;;;;;;;;;;;;;;0.24;100.00;99801.91;5568857;32;34412;-75
2023/01/21 01:11:34;;;;;;;;;;;;;;;0.22;100.00;99788.97;5568889;32;34534;-73
2023/01/21 01:14:46;;;;;;;;;;;;;;;0.17;100.00;99804.13;5568940;32;34211;-74
2023/01/21 01:17:54;;;;;;;;;;;;;;;0.18;100.00;99811.03;5568762;32;35248;-73
2023/01/21 01:21:01;;;;;;;;;;;;;;;0.22;100.00;99804.63;5567956;32;35095;-74
2023/01/21 01:24:08;;;;;;;;;;;;;;;0.23;100.00;99815.88;5555265;32;33643;-74
2023/01/21 01:27:14;;;;;;;;;;;;;;;0.18;100.00;99815.41;5568897;32;34273;-73
2023/01/21 01:30:19;;;;;;;;;;;;;;;0.14;100.00;99821.81;5567960;32;35112;-73
2023/01/21 01:33:27;;;;;;;;;;;;;;;0.16;100.00;99819.91;5568153;32;34995;-73
2023/01/21 01:36:35;;;;;;;;;;;;;;;0.20;100.00;99816.94;5568820;32;35085;-73
2023/01/21 01:39:46;;;;;;;;;;;;;;;0.23;100.00;99816.72;5568823;32;34391;-74
2023/01/21 01:42:56;;;;;;;;;;;;;;;0.23;100.00;99810.66;5568692;32;34579;-75
2023/01/21 01:46:06;;;;;;;;;;;;;;;0.28;100.00;99801.56;5568767;32;35029;-75
2023/01/21 01:49:16;;;;;;;;;;;;;;;0.18;100.00;99803.19;5568569;32;34975;-74
2023/01/21 01:52:24;;;;;;;;;;;;;;;0.24;100.00;99804.50;5567731;32;34493;-73
2023/01/21 01:55:32;;;;;;;;;;;;;;;0.25;100.00;99801.78;5568533;32;34396;-73
2023/01/21 01:58:39;;;;;;;;;;;;;;;0.30;100.00;99807.47;5568064;32;34473;-73
2023/01/21 02:01:46;;;;;;;;;;;;;;;0.20;100.00;99798.69;5568363;32;35114;-74
2023/01/21 02:04:59;;;;;;;;;;;;;;;0.30;100.00;99802.25;5568372;32;35134;-74
2023/01/21 02:08:07;;;;;;;;;;;;;;;0.31;100.00;99792.66;5568348;32;34870;-73
2023/01/21 02:11:18;;;;;;;;;;;;;;;0.30;100.00;99794.44;5567460;32;34554;-73
2023/01/21 02:14:28;;;;;;;;;;;;;;;0.31;100.00;99788.25;5568470;32;35021;-73
2023/01/21 02:17:40;;;;;;;;;;;;;;;0.31;100.00;99790.88;5568242;32;34392;-74
2023/01/21 02:20:50;;;;;;;;;;;;;;;0.34;100.00;99788.03;5568324;32;34582;-75
2023/01/21 02:24:20;;;;;;;;;;;;;;;0.36;100.00;99788.75;5568308;32;34423;-74
2023/01/21 02:27:31;;;;;;;;;;;;;;;0.28;100.00;99787.69;5568579;32;34337;-74
2023/01/21 02:30:38;;;;;;;;;;;;;;;0.31;100.00;99790.88;5567345;32;35226;-74
2023/01/21 02:33:53;;;;;;;;;;;;;;;0.24;100.00;99792.28;5568130;32;33949;-74
2023/01/21 02:36:59;;;;;;;;;;;;;;;0.33;100.00;99803.81;5568234;32;34510;-74
2023/01/21 02:40:12;;;;;;;;;;;;;;;0.34;100.00;99800.22;5568222;32;34185;-74
2023/01/21 02:43:26;;;;;;;;;;;;;;;0.42;100.00;99800.50;5568180;32;35281;-73
2023/01/21 02:46:39;;;;;;;;;;;;;;;0.37;100.00;99806.06;5568269;32;34930;-74
2023/01/21 02:50:06;;;;;;;;;;;;;;;0.48;100.00;99809.63;5568211;32;34391;-74
2023/01/21 02:53:20;;;;;;;;;;;;;;;0.44;100.00;99802.03;5568185;32;34545;-74
2023/01/21 02:56:26;;;;;;;;;;;;;;;0.43;100.00;99810.81;5568405;32;34802;-74
2023/01/21 02:59:36;;;;;;;;;;;;;;;0.31;100.00;99809.13;5567203;32;33861;-73
2023/01/21 03:02:46;;;;;;;;;;;;;;;0.44;100.00;99804.63;5568019;32;34257;-74
2023/01/21 03:05:55;;;;;;;;;;;;;;;0.33;100.00;99802.03;5567952;32;34406;-72
2023/01/21 03:09:08;;;;;;;;;;;;;;;0.33;100.00;99796.81;5566822;32;34505;-73
2023/01/21 03:12:21;;;;;;;;;;;;;;;0.38;100.00;99791.25;5566980;32;34649;-72
2023/01/21 03:19:10;;;;;;;;;;;;;;;0.27;100.00;99778.19;5567880;32;34659;-72
2023/01/21 03:22:19;;;;;;;;;;;;;;;0.23;100.00;99788.03;5567843;32;34451;-73
2023/01/21 03:25:30;;;;;;;;;;;;;;;0.25;100.00;99801.78;5567019;32;34093;-72
2023/01/21 03:28:41;;;;;;;;;;;;;;;0.28;100.00;99809.38;5567937;32;34367;-73
2023/01/21 03:31:52;;;;;;;;;;;;;;;0.33;100.00;99822.91;5567680;32;34732;-73
2023/01/21 03:35:03;;;;;;;;;;;;;;;0.26;100.00;99818.25;5554481;31;35508;-73
2023/01/21 03:38:21;;;;;;;;;;;;;;;0.31;100.00;99798.69;5567518;32;34513;-72
2023/01/21 03:41:33;;;;;;;;;;;;;;;0.34;100.00;99808.06;5554787;32;34863;-73
2023/01/21 03:44:40;;;;;;;;;;;;;;;0.39;100.00;99817.19;5567681;32;35148;-72
2023/01/21 03:47:51;;;;;;;;;;;;;;;0.24;100.00;99830.59;5566746;32;34531;-73
2023/01/21 03:51:02;;;;;;;;;;;;;;;0.38;100.00;99831.22;5566679;32;34514;-73
2023/01/21 03:54:10;;;;;;;;;;;;;;;0.26;100.00;99844.34;5567443;32;34571;-72
2023/01/21 03:57:16;;;;;;;;;;;;;;;0.38;100.00;99846.03;5566992;32;34759;-72
2023/01/21 04:00:26;;;;;;;;;;;;;;;0.38;100.00;99846.03;5567413;32;34633;-72
2023/01/21 04:03:34;;;;;;;;;;;;;;;0.39;100.00;99832.03;5566638;32;34592;-72
2023/01/21 04:06:41;;;;;;;;;;;;;;;0.39;100.00;99842.47;5567280;32;34584;-72
2023/01/21 04:09:51;;;;;;;;;;;;;;;0.30;100.00;99841.37;5567252;32;33976;-72
2023/01/21 04:12:57;;;;;;;;;;;;;;;0.34;100.00;99855.03;5566431;32;34387;-72
2023/01/21 04:16:06;;;;;;;;;;;;;;;0.23;100.00;99855.00;5567169;32;34416;-72
2023/01/21 04:19:11;;;;;;;;;;;;;;;0.17;100.00;99863.28;5566836;32;34514;-72
2023/01/21 04:22:20;;;;;;;;;;;;;;;0.28;100.00;99868.53;5565606;32;34819;-72
2023/01/21 04:25:27;;;;;;;;;;;;;;;0.31;100.00;99865.69;5567029;32;35031;-73
2023/01/21 04:28:35;;;;;;;;;;;;;;;0.40;100.00;99873.66;5566922;32;34947;-72
2023/01/21 04:31:42;;;;;;;;;;;;;;;0.34;100.00;99870.66;5566782;32;34614;-72
2023/01/21 04:34:49;;;;;;;;;;;;;;;0.42;100.00;99874.38;5565941;32;32768;-72
2023/01/21 04:37:57;;;;;;;;;;;;;;;0.54;100.00;99884.81;5566866;32;34590;-73
2023/01/21 04:41:06;;;;;;;;;;;;;;;0.53;100.00;99884.03;5565358;32;33617;-72
2023/01/21 04:44:13;;;;;;;;;;;;;;;0.49;100.00;99887.78;5565974;32;34412;-72
2023/01/21 04:47:23;;;;;;;;;;;;;;;0.46;100.00;99897.62;5565746;32;34544;-72
2023/01/21 04:50:29;;;;;;;;;;;;;;;0.46;100.00;99903.69;5565627;32;34566;-72
2023/01/21 04:53:36;;;;;;;;;;;;;;;0.53;100.00;99901.47;5565748;32;34550;-72
2023/01/21 04:56:43;;;;;;;;;;;;;;;0.52;100.00;99892.78;5565543;32;35138;-72
2023/01/21 04:59:51;;;;;;;;;;;;;;;0.59;100.00;99901.81;5565552;32;34366;-72
2023/01/21 05:03:00;;;;;;;;;;;;;;;0.57;100.00;99908.09;5566216;32;34685;-72
2023/01/21 05:06:08;;;;;;;;;;;;;;;0.63;100.00;99911.06;5565423;32;34692;-73
2023/01/21 05:09:14;;;;;;;;;;;;;;;0.70;100.00;99920.09;5566240;32;34344;-74
2023/01/21 05:12:20;;;;;;;;;;;;;;;0.52;100.00;99921.50;5565249;32;34329;-73
2023/01/21 05:15:28;;;;;;;;;;;;;;;0.60;100.00;99923.53;5566181;32;34443;-72
2023/01/21 05:18:36;;;;;;;;;;;;;;;0.49;100.00;99926.94;5565018;32;34510;-73
2023/01/21 05:21:43;;;;;;;;;;;;;;;0.66;100.00;99933.50;5565956;32;34810;-73
2023/01/21 05:24:52;;;;;;;;;;;;;;;0.48;100.00;99934.91;5565079;32;34955;-73
2023/01/21 05:28:01;;;;;;;;;;;;;;;0.47;100.00;99928.84;5565890;32;35003;-72
2023/01/21 05:31:13;;;;;;;;;;;;;;;0.45;100.00;99935.94;5565753;32;34619;-73
2023/01/21 05:34:19;;;;;;;;;;;;;;;0.40;100.00;99948.50;5566379;31;34014;-71
2023/01/21 05:37:25;;;;;;;;;;;;;;;0.40;100.00;99949.34;5554866;32;33707;-73
2023/01/21 05:40:34;;;;;;;;;;;;;;;0.40;100.00;99935.44;5567720;32;34501;-72
2023/01/21 05:43:42;;;;;;;;;;;;;;;0.32;100.00;99943.03;5568600;32;34982;-72
2023/01/21 05:46:49;;;;;;;;;;;;;;;0.31;100.00;99942.19;5568645;32;34957;-74
2023/01/21 05:50:01;;;;;;;;;;;;;;;0.23;100.00;99951.53;5569001;32;34611;-73
2023/01/21 05:53:07;;;;;;;;;;;;;;;0.33;100.00;99968.19;5568405;32;34639;-72
2023/01/21 05:56:14;;;;;;;;;;;;;;;0.23;100.00;99970.63;5568490;32;34517;-72
2023/01/21 05:59:21;;;;;;;;;;;;;;;0.22;100.00;99973.34;5568369;32;34933;-72
2023/01/21 06:02:29;;;;;;;;;;;;;;;0.18;100.00;99975.34;5568490;32;34527;-72
2023/01/21 06:05:41;;;;;;;;;;;;;;;0.37;100.00;99975.66;5568544;32;34372;-73
2023/01/21 06:08:50;;;;;;;;;;;;;;;0.22;100.00;99984.59;5567551;32;34244;-72
2023/01/21 06:12:00;;;;;;;;;;;;;;;0.20;100.00;99983.03;5568278;32;34965;-72
2023/01/21 06:15:05;;;;;;;;;;;;;;;0.23;100.00;99999.31;5567528;32;34369;-72
2023/01/21 06:18:11;;;;;;;;;;;;;;;0.27;100.00;99981.66;5568135;32;35103;-72
2023/01/21 06:21:19;;;;;;;;;;;;;;;0.23;100.00;99975.00;5568328;32;34665;-72
2023/01/21 06:24:28;;;;;;;;;;;;;;;0.31;100.00;99986.53;5568308;32;35228;-72
2023/01/21 06:27:37;;;;;;;;;;;;;;;0.27;100.00;99989.50;5567343;32;34577;-72
2023/01/21 06:30:44;;;;;;;;;;;;;;;0.25;100.00;100007.00;5568227;32;34985;-72
2023/01/21 06:33:56;;;;;;;;;;;;;;;0.23;100.00;100004.53;5568026;32;34782;-72
2023/01/21 06:37:03;;;;;;;;;;;;;;;0.31;100.00;100007.41;5553178;32;35139;-72
2023/01/21 06:40:10;;;;;;;;;;;;;;;0.29;100.00;100011.09;5552211;32;34726;-72
2023/01/21 06:43:17;;;;;;;;;;;;;;;0.44;100.00;100021.22;5566814;32;35032;-72
2023/01/21 06:46:27;;;;;;;;;;;;;;;0.34;100.00;100027.22;5567771;32;34727;-72
2023/01/21 06:49:35;;;;;;;;;;;;;;;0.40;100.00;100027.63;5568063;32;34432;-73
2023/01/21 06:52:44;;;;;;;;;;;;;;;0.55;100.00;100030.03;5563317;32;34544;-73
2023/01/21 06:55:55;;;;;;;;;;;;;;;0.54;100.00;100028.38;5561462;32;35154;-72
2023/01/21 06:58:59;;;;;;;;;;;;;;;0.54;100.00;100031.81;5553725;32;34188;-73
2023/01/21 07:02:05;;;;;;;;;;;;;;;0.54;100.00;100029.19;5547994;32;35168;-72
2023/01/21 07:05:13;;;;;;;;;;;;;;;0.58;100.00;100048.91;5548095;32;34569;-73
2023/01/21 07:08:22;;;;;;;;;;;;;;;0.59;100.00;100050.59;5548059;32;34978;-74
2023/01/21 07:11:28;;;;;;;;;;;;;;;0.63;100.00;100046.78;5547433;32;34524;-72
2023/01/21 07:14:37;;;;;;;;;;;;;;;0.52;100.00;100048.53;5546295;32;35099;-72
2023/01/21 07:17:45;;;;;;;;;;;;;;;0.54;100.00;100054.47;5553034;32;34341;-72
2023/01/21 07:20:56;;;;;;;;;;;;;;;0.70;100.00;100055.84;5567490;32;34557;-73
2023/01/21 07:24:02;;;;;;;;;;;;;;;0.66;100.00;100064.03;5567568;32;35404;-72
2023/01/21 07:27:10;;;;;;;;;;;;;;;0.74;100.00;100072.13;5567625;32;33986;-73
2023/01/21 07:30:20;;;;;;;;;;;;;;;0.68;100.00;100077.78;5553259;32;33101;-73
2023/01/21 07:33:27;;;;;;;;;;;;;;;0.74;100.00;100095.63;5566776;32;35142;-73
2023/01/21 07:36:36;;;;;;;;;;;;;;;0.81;100.00;100102.06;5554446;32;34928;-72
2023/01/21 07:39:45;;;;;;;;;;;;;;;0.85;100.00;100112.16;5554317;32;34674;-72
2023/01/21 07:42:55;;;;;;;;;;;;;;;0.82;100.00;100107.16;5554338;32;34371;-73
2023/01/21 07:46:02;;;;;;;;;;;;;;;0.83;100.00;100115.81;5567442;32;34346;-73
2023/01/21 07:49:11;;;;;;;;;;;;;;;0.93;100.00;100113.38;5567415;32;34761;-73
2023/01/21 07:52:16;;;;;;;;;;;;;;;1.04;100.00;100109.03;5567620;32;35229;-74
2023/01/21 07:55:24;;;;;;;;;;;;;;;0.98;100.00;100104.25;5567001;32;34434;-73
2023/01/21 07:58:32;;;;;;;;;;;;;;;1.01;100.00;100121.50;5566002;32;34923;-72
2023/01/21 08:01:38;;;;;;;;;;;;;;;1.08;100.00;100123.53;5566997;32;34478;-72
2023/01/21 08:04:45;;;;;;;;;;;;;;;1.04;100.00;100132.53;5567023;32;34754;-73
2023/01/21 08:07:51;;;;;;;;;;;;;;;0.96;100.00;100129.66;5566409;32;35167;-72
2023/01/21 08:10:58;;;;;;;;;;;;;;;1.11;100.00;100141.59;5553150;32;32876;-73
2023/01/21 08:14:05;;;;;;;;;;;;;;;1.00;100.00;100138.94;5566566;32;34469;-73
2023/01/21 08:17:14;;;;;;;;;;;;;;;0.98;100.00;100140.81;5566018;32;34530;-73
2023/01/21 08:20:20;;;;;;;;;;;;;;;0.94;100.00;100147.22;5566099;32;34505;-72
2023/01/21 08:23:33;;;;;;;;;;;;;;;1.00;100.00;100140.72;5566402;32;35152;-72
2023/01/21 08:26:38;;;;;;;;;;;;;;;1.22;100.00;100131.16;5553076;32;34547;-72
2023/01/21 08:29:47;;;;;;;;;;;;;;;1.40;100.00;100128.13;5566639;32;34514;-73
2023/01/21 08:32:54;;;;;;;;;;;;;;;1.39;100.00;100134.31;5566871;32;34450;-73
2023/01/21 08:36:04;;;;;;;;;;;;;;;1.42;100.00;100134.06;5553740;32;34470;-73
2023/01/21 08:39:11;;;;;;;;;;;;;;;1.45;100.00;100137.31;5566313;32;35255;-73
2023/01/21 08:42:17;;;;;;;;;;;;;;;1.53;100.00;100145.37;5566859;32;34610;-73
2023/01/21 08:45:25;;;;;;;;;;;;;;;1.62;100.00;100141.25;5553315;32;35387;-73
2023/01/21 08:48:36;;;;;;;;;;;;;;;1.47;100.00;100148.47;5566547;32;34853;-73
2023/01/21 08:51:44;;;;;;;;;;;;;;;1.44;100.00;100150.47;5566436;32;35158;-73
2023/01/21 08:54:54;;;;;;;;;;;;;;;1.46;100.00;100157.25;5566361;32;35166;-73
2023/01/21 08:58:01;;;;;;;;;;;;;;;1.39;100.00;100153.44;5564748;31;34580;-73
2023/01/21 09:01:07;;;;;;;;;;;;;;;1.23;100.00;100153.75;5586203;31;35082;-73
2023/01/21 09:04:11;;;;;;;;;;;;;;;1.22;100.00;100167.75;5585896;31;34530;-73
2023/01/21 09:07:17;;;;;;;;;;;;;;;1.20;100.00;100164.44;5586165;31;35232;-73
2023/01/21 09:13:50;;;;;;;;;;;;;;;1.30;100.00;100175.03;5588483;31;34766;-74
2023/01/21 09:16:56;;;;;;;;;;;;;;;1.38;100.00;100179.69;5588494;31;34680;-72
2023/01/21 09:20:05;;;;;;;;;;;;;;;1.24;100.00;100173.72;5588194;31;34832;-72
2023/01/21 09:23:25;;;;;;;;;;;;;;;1.20;100.00;100174.06;5588241;31;35168;-71
2023/01/21 09:26:31;;;;;;;;;;;;;;;1.33;100.00;100176.56;5567199;32;33373;-73
2023/01/21 09:29:41;;;;;;;;;;;;;;;1.52;100.00;100179.47;5567401;32;34575;-72
2023/01/21 09:32:48;;;;;;;;;;;;;;;1.55;100.00;100182.69;5542882;32;34282;-73
2023/01/21 09:35:55;;;;;;;;;;;;;;;1.52;100.00;100177.69;5567066;32;34698;-74
2023/01/21 09:39:02;;;;;;;;;;;;;;;1.66;100.00;100182.72;5556097;31;35102;-72
2023/01/21 09:42:15;;;;;;;;;;;;;;;1.53;100.00;100171.53;5573039;31;34583;-72
2023/01/21 09:45:22;;;;;;;;;;;;;;;1.49;100.00;100180.56;5568517;32;34775;-72
2023/01/21 09:48:35;;;;;;;;;;;;;;;1.68;100.00;100178.22;5554336;32;33343;-72
2023/01/21 09:51:48;;;;;;;;;;;;;;;1.78;100.00;100172.28;5554209;32;33020;-73
2023/01/21 09:54:57;;;;;;;;;;;;;;;2.09;100.00;100172.41;5568555;32;35430;-72
2023/01/21 09:58:19;;;;;;;;;;;;;;;2.19;100.00;100170.75;5568456;32;35169;-73
2023/01/21 10:01:30;;;;;;;;;;;;;;;2.47;100.00;100168.59;5568509;32;34423;-73
2023/01/21 10:04:37;;;;;;;;;;;;;;;2.45;100.00;100178.34;5555145;32;34919;-72
2023/01/21 10:07:52;;;;;;;;;;;;;;;2.35;100.00;100166.94;5568406;32;35102;-72
2023/01/21 10:11:05;;;;;;;;;;;;;;;2.25;100.00;100172.06;5568388;32;34045;-73
2023/01/21 10:14:19;;;;;;;;;;;;;;;2.19;100.00;100162.91;5554815;32;34601;-72
2023/01/21 10:17:34;;;;;;;;;;;;;;;2.25;100.00;100173.84;5567784;32;34557;-71
2023/01/21 10:20:49;;;;;;;;;;;;;;;2.45;100.00;100162.66;5567399;32;34711;-72
2023/01/21 10:24:03;;;;;;;;;;;;;;;2.56;100.00;100178.34;5554769;32;34360;-73
2023/01/21 10:27:15;;;;;;;;;;;;;;;2.33;100.00;100184.53;5567970;32;34452;-72
2023/01/21 10:30:27;;;;;;;;;;;;;;;2.34;100.00;100181.81;5568145;32;34775;-72
2023/01/21 10:33:33;;;;;;;;;;;;;;;2.44;100.00;100192.38;5568087;32;34369;-72
2023/01/21 10:36:46;;;;;;;;;;;;;;;2.24;100.00;100190.50;5554467;32;35490;-73
2023/01/21 10:39:55;;;;;;;;;;;;;;;2.08;100.00;100189.06;5567999;32;34364;-72
2023/01/21 10:43:04;;;;;;;;;;;;;;;2.23;100.00;100196.72;5554576;32;34995;-73
2023/01/21 10:46:11;;;;;;;;;;;;;;;2.30;100.00;100193.47;5568057;32;35296;-72
2023/01/21 10:49:32;;;;;;;;;;;;;;;2.09;100.00;100201.19;5568072;32;34648;-73
2023/01/21 10:52:45;;;;;;;;;;;;;;;2.33;100.00;100195.00;5567951;32;34966;-73
2023/01/21 10:55:51;;;;;;;;;;;;;;;2.23;100.00;100204.56;5554396;32;34465;-73
2023/01/21 10:59:07;;;;;;;;;;;;;;;1.94;100.00;100196.31;5554865;32;34963;-72
2023/01/21 11:02:24;;;;;;;;;;;;;;;1.89;100.00;100201.09;5568352;32;34469;-72
2023/01/21 11:05:30;;;;;;;;;;;;;;;2.05;100.00;100194.53;5567597;32;34475;-72
2023/01/21 11:08:38;;;;;;;;;;;;;;;2.27;100.00;100193.72;5554234;32;35075;-73
2023/01/21 11:11:45;;;;;;;;;;;;;;;2.48;100.00;100193.81;5554460;32;35100;-72
2023/01/21 11:15:02;;;;;;;;;;;;;;;2.39;100.00;100192.75;5565673;32;35112;-72
2023/01/21 11:18:24;;;;;;;;;;;;;;;2.39;100.00;100189.31;5558475;32;33871;-72
2023/01/21 11:21:31;;;;;;;;;;;;;;;2.40;100.00;100186.56;5554474;32;34181;-73
2023/01/21 11:24:43;;;;;;;;;;;;;;;2.33;100.00;100187.16;5567340;32;34041;-72
2023/01/21 11:27:53;;;;;;;;;;;;;;;2.15;100.00;100182.41;5567199;32;34549;-72
2023/01/21 11:31:30;;;;;;;;;;;;;;;2.09;100.00;100184.66;5567085;32;34230;-73
2023/01/21 11:34:34;;;;;;;;;;;;;;;1.96;100.00;100181.34;5567361;32;34315;-72
2023/01/21 11:37:44;;;;;;;;;;;;;;;2.34;100.00;100181.81;5567058;32;34460;-72
2023/01/21 11:41:22;;;;;;;;;;;;;;;2.50;100.00;100178.81;5566862;32;34414;-73
2023/01/21 11:44:34;;;;;;;;;;;;;;;2.50;100.00;100169.19;5514622;32;35802;-73
2023/01/21 11:47:48;;;;;;;;;;;;;;;2.52;100.00;100169.03;5542356;32;34766;-72
2023/01/21 11:51:05;;;;;;;;;;;;;;;2.33;100.00;100176.69;5567505;32;34319;-72
2023/01/21 11:54:13;;;;;;;;;;;;;;;2.36;100.00;100166.81;5567754;32;34873;-73
2023/01/21 11:57:26;;;;;;;;;;;;;;;2.31;100.00;100171.59;5553363;32;34603;-72
2023/01/21 12:00:34;;;;;;;;;;;;;;;2.43;100.00;100170.59;5553871;32;34455;-72
2023/01/21 12:03:43;;;;;;;;;;;;;;;2.59;100.00;100172.84;5553848;32;35226;-72
2023/01/21 12:06:52;;;;;;;;;;;;;;;2.75;100.00;100168.06;5553875;32;34540;-72
2023/01/21 12:10:02;;;;;;;;;;;;;;;2.88;100.00;100181.00;5553935;32;34555;-72
2023/01/21 12:13:13;;;;;;;;;;;;;;;3.06;100.00;100180.34;5553963;32;35299;-72
2023/01/21 12:16:21;;;;;;;;;;;;;;;2.57;100.00;100178.19;5531462;32;1131142;-72
2023/01/21 12:19:36;;;;;;;;;;;;;;;2.40;100.00;100183.94;5566883;32;35197;-72
2023/01/21 12:22:42;;;;;;;;;;;;;;;2.48;100.00;100188.56;5565658;32;34638;-72
2023/01/21 12:25:57;;;;;;;;;;;;;;;2.43;100.00;100177.62;5566494;32;35029;-72
2023/01/21 12:29:03;;;;;;;;;;;;;;;2.36;100.00;100187.78;5566925;32;35224;-72
2023/01/21 12:32:20;;;;;;;;;;;;;;;2.46;100.00;100191.34;5566974;32;34074;-73
2023/01/21 12:35:32;;;;;;;;;;;;;;;2.40;100.00;100196.22;5553824;32;34504;-71
2023/01/21 12:38:53;;;;;;;;;;;;;;;2.27;100.00;100193.72;5553539;32;33846;-72
2023/01/21 12:42:19;;;;;;;;;;;;;;;2.15;100.00;100198.12;5552772;32;35090;-72
2023/01/21 12:45:46;;;;;;;;;;;;;;;2.21;100.00;100201.22;5569489;32;34313;-72
2023/01/21 12:49:00;;;;;;;;;;;;;;;2.24;100.00;100204.41;5569298;32;34392;-72
2023/01/21 12:52:22;;;;;;;;;;;;;;;2.12;100.00;100208.84;5555594;32;35060;-72
2023/01/21 12:55:40;;;;;;;;;;;;;;;2.21;100.00;100206.44;5554898;32;34418;-72
2023/01/21 12:58:53;;;;;;;;;;;;;;;2.26;100.00;100213.00;5568967;32;34537;-73
2023/01/21 13:02:20;;;;;;;;;;;;;;;2.19;100.00;100210.00;5555531;32;35137;-72
2023/01/21 13:05:36;;;;;;;;;;;;;;;2.21;100.00;100216.91;5555726;32;34297;-72
2023/01/21 13:08:54;;;;;;;;;;;;;;;2.36;100.00;100228.81;5568923;32;34528;-72
2023/01/21 13:12:04;;;;;;;;;;;;;;;2.23;100.00;100220.25;5568941;32;34640;-73
2023/01/21 13:15:12;;;;;;;;;;;;;;;2.26;100.00;100228.69;5555666;32;34564;-74
2023/01/21 13:18:25;;;;;;;;;;;;;;;2.07;100.00;100231.06;5568252;32;35006;-74
2023/01/21 13:21:32;;;;;;;;;;;;;;;2.08;100.00;100230.13;5568879;32;35102;-75
2023/01/21 13:24:54;;;;;;;;;;;;;;;2.11;100.00;100242.97;5555850;32;34718;-75
2023/01/21 13:28:11;;;;;;;;;;;;;;;2.03;100.00;100227.03;5568943;32;35106;-75
2023/01/21 13:31:34;;;;;;;;;;;;;;;2.03;100.00;100237.50;5555326;32;34274;-76
2023/01/21 13:35:05;;;;;;;;;;;;;;;1.91;100.00;100241.84;5555516;32;34102;-75
2023/01/21 13:38:20;;;;;;;;;;;;;;;1.75;100.00;100247.41;5568918;32;34266;-75
2023/01/21 13:41:40;;;;;;;;;;;;;;;1.75;100.00;100257.03;5568023;32;34434;-75
2023/01/21 13:44:50;;;;;;;;;;;;;;;1.81;100.00;100243.50;5570626;31;34961;-75
2023/01/21 13:48:00;;;;;;;;;;;;;;;1.80;100.00;100249.66;5574486;31;33164;-75
2023/01/21 13:51:08;;;;;;;;;;;;;;;1.74;100.00;100252.75;5574786;31;34583;-76
2023/01/21 13:54:18;;;;;;;;;;;;;;;1.72;100.00;100252.88;5561905;32;34226;-76
2023/01/21 13:57:41;;;;;;;;;;;;;;;1.70;100.00;100253.91;5568477;32;34987;-75
2023/01/21 14:00:52;;;;;;;;;;;;;;;1.77;100.00;100259.53;5567539;32;34550;-76
2023/01/21 14:04:18;;;;;;;;;;;;;;;1.85;100.00;100262.41;5566114;32;34270;-76
2023/01/21 14:07:39;;;;;;;;;;;;;;;1.96;100.00;100275.50;5554886;32;34517;-76
2023/01/21 14:10:53;;;;;;;;;;;;;;;1.82;100.00;100273.09;5571034;31;34990;-77
2023/01/21 14:14:00;;;;;;;;;;;;;;;1.85;100.00;100278.94;5554256;32;35110;-77
2023/01/21 14:17:12;;;;;;;;;;;;;;;1.81;100.00;100290.56;5555211;32;34918;-76
2023/01/21 14:20:18;;;;;;;;;;;;;;;1.71;100.00;100289.59;5568588;32;34957;-77
2023/01/21 14:23:45;;;;;;;;;;;;;;;1.92;100.00;100292.41;5554006;32;34500;-76
2023/01/21 14:27:03;;;;;;;;;;;;;;;1.96;100.00;100292.06;5568473;32;34891;-77
2023/01/21 14:30:20;;;;;;;;;;;;;;;1.95;100.00;100289.53;5568429;32;35065;-77
2023/01/21 14:33:46;;;;;;;;;;;;;;;1.83;100.00;100285.25;5567995;32;34203;-75
2023/01/21 14:37:07;;;;;;;;;;;;;;;1.81;100.00;100297.59;5555218;32;35022;-77
2023/01/21 14:40:25;;;;;;;;;;;;;;;1.67;100.00;100298.63;5568108;32;34421;-76
2023/01/21 14:43:37;;;;;;;;;;;;;;;1.61;100.00;100304.28;5555716;32;34879;-76
2023/01/21 14:47:06;;;;;;;;;;;;;;;1.55;100.00;100304.75;5555434;32;35000;-76
2023/01/21 14:50:32;;;;;;;;;;;;;;;1.51;100.00;100311.13;5554796;32;35156;-76
2023/01/21 14:53:46;;;;;;;;;;;;;;;1.50;100.00;100315.53;5554749;32;34474;-76
2023/01/21 14:56:59;;;;;;;;;;;;;;;1.50;100.00;100325.16;5555179;32;34508;-75
2023/01/21 15:00:23;;;;;;;;;;;;;;;1.43;100.00;100319.53;5556433;32;35805;-76
2023/01/21 15:03:45;;;;;;;;;;;;;;;1.41;100.00;100316.19;5567568;32;34496;-76
2023/01/21 15:06:55;;;;;;;;;;;;;;;1.38;100.00;100326.03;5566885;32;34853;-75
2023/01/21 15:10:09;;;;;;;;;;;;;;;1.32;100.00;100319.47;5567966;32;34547;-75
2023/01/21 15:13:31;;;;;;;;;;;;;;;1.30;100.00;100330.06;5568030;32;34885;-75
2023/01/21 15:16:40;;;;;;;;;;;;;;;1.28;100.00;100328.47;5567926;32;34908;-75
2023/01/21 15:19:56;;;;;;;;;;;;;;;1.27;100.00;100326.81;5567702;32;35120;-75
2023/01/21 15:23:16;;;;;;;;;;;;;;;1.25;100.00;100329.56;5567860;32;34421;-75
2023/01/21 15:26:30;;;;;;;;;;;;;;;1.25;100.00;100340.00;5567771;32;35194;-75
2023/01/21 15:29:39;;;;;;;;;;;;;;;1.24;100.00;100347.94;5567758;32;34958;-75
2023/01/21 15:32:47;;;;;;;;;;;;;;;1.26;100.00;100346.03;5554331;32;34648;-75
2023/01/21 15:35:55;;;;;;;;;;;;;;;1.23;100.00;100341.87;5567556;32;35076;-75
2023/01/21 15:39:22;;;;;;;;;;;;;;;1.28;100.00;100338.94;5554178;32;34398;-74
2023/01/21 15:42:38;;;;;;;;;;;;;;;1.25;100.00;100345.22;5554164;32;34443;-75
2023/01/21 15:46:04;;;;;;;;;;;;;;;1.25;100.00;100342.63;5567584;32;35137;-75
2023/01/21 15:49:16;;;;;;;;;;;;;;;1.34;100.00;100348.13;5567524;32;34441;-74
2023/01/21 15:52:42;;;;;;;;;;;;;;;1.23;100.00;100354.09;5567523;32;34958;-75
2023/01/21 15:56:15;;;;;;;;;;;;;;;1.20;100.00;100357.78;5567300;32;34468;-75
2023/01/21 15:59:44;;;;;;;;;;;;;;;1.22;100.00;100353.28;5544585;32;34382;-74
2023/01/21 16:03:03;;;;;;;;;;;;;;;1.24;100.00;100361.00;5550744;32;35090;-74
2023/01/21 16:06:13;;;;;;;;;;;;;;;1.22;100.00;100366.34;5553940;32;34228;-75
2023/01/21 16:09:26;;;;;;;;;;;;;;;1.27;100.00;100366.84;5567252;32;34162;-74
2023/01/21 16:12:32;;;;;;;;;;;;;;;1.25;100.00;100363.53;5553707;32;34569;-73
2023/01/21 16:15:43;;;;;;;;;;;;;;;1.29;100.00;100372.81;5567097;32;34686;-75
2023/01/21 16:18:55;;;;;;;;;;;;;;;1.35;100.00;100379.37;5565948;32;35059;-73
2023/01/21 16:22:03;;;;;;;;;;;;;;;1.31;100.00;100391.81;5567014;32;34617;-73
2023/01/21 16:25:16;;;;;;;;;;;;;;;1.24;100.00;100395.81;5567071;32;34430;-73
2023/01/21 16:28:24;;;;;;;;;;;;;;;1.20;100.00;100393.53;5566885;32;35127;-72
2023/01/21 16:31:44;;;;;;;;;;;;;;;1.16;100.00;100400.72;5566756;32;34225;-72
2023/01/21 16:34:51;;;;;;;;;;;;;;;1.20;100.00;100406.59;5553773;32;34378;-72